sensor_id;sensor_type;location;lat;lon;timestamp;P1;durP1;ratioP1;P2;durP2;ratioP2
73642;SDS011;61938;48.652;9.292;2024-02-23T00:01:47;0.35;;;0.00;;
73642;SDS011;61938;48.652;9.292;2024-02-23T00:04:12;0.10;;;0.00;;
73642;SDS011;61938;48.652;9.292;2024-02-23T00:06:39;0.57;;;0.10;;
73642;SDS011;61938;48.652;9.292;2024-02-23T00:09:04;0.85;;;0.30;;
73642;SDS011;61938;48.652;9.292;2024-02-23T00:11:30;0.88;;;0.30;;
73642;SDS011;61938;48.652;9.292;2024-02-23T00:13:58;0.82;;;0.20;;
73642;SDS011;61938;48.652;9.292;2024-02-23T00:16:23;11.40;;;2.20;;
73642;SDS011;61938;48.652;9.292;2024-02-23T00:18:49;0.28;;;0.10;;
73642;SDS011;61938;48.652;9.292;2024-02-23T00:21:14;0.00;;;0.00;;
73642;SDS011;61938;48.652;9.292;2024-02-23T00:23:40;0.40;;;0.05;;
73642;SDS011;61938;48.652;9.292;2024-02-23T00:26:05;1.02;;;0.10;;
73642;SDS011;61938;48.652;9.292;2024-02-23T00:28:31;0.98;;;0.10;;
73642;SDS011;61938;48.652;9.292;2024-02-23T00:30:56;2.13;;;0.20;;
73642;SDS011;61938;48.652;9.292;2024-02-23T00:33:22;1.70;;;0.20;;
73642;SDS011;61938;48.652;9.292;2024-02-23T00:35:48;0.90;;;0.60;;
73642;SDS011;61938;48.652;9.292;2024-02-23T00:38:14;3.13;;;0.25;;
73642;SDS011;61938;48.652;9.292;2024-02-23T00:40:39;0.47;;;0.20;;
73642;SDS011;61938;48.652;9.292;2024-02-23T00:43:05;1.50;;;0.30;;
73642;SDS011;61938;48.652;9.292;2024-02-23T00:45:30;2.05;;;0.13;;
73642;SDS011;61938;48.652;9.292;2024-02-23T00:47:56;0.63;;;0.28;;
73642;SDS011;61938;48.652;9.292;2024-02-23T00:50:24;0.15;;;0.10;;
73642;SDS011;61938;48.652;9.292;2024-02-23T00:52:52;0.20;;;0.10;;
73642;SDS011;61938;48.652;9.292;2024-02-23T00:55:18;1.75;;;0.08;;
73642;SDS011;61938;48.652;9.292;2024-02-23T00:57:43;0.25;;;0.10;;
73642;SDS011;61938;48.652;9.292;2024-02-23T01:00:10;1.23;;;0.25;;
73642;SDS011;61938;48.652;9.292;2024-02-23T01:02:37;0.00;;;0.00;;
73642;SDS011;61938;48.652;9.292;2024-02-23T01:05:03;0.65;;;0.20;;
73642;SDS011;61938;48.652;9.292;2024-02-23T01:07:29;0.73;;;0.30;;
73642;SDS011;61938;48.652;9.292;2024-02-23T01:09:55;0.55;;;0.25;;
73642;SDS011;61938;48.652;9.292;2024-02-23T01:12:21;1.75;;;0.20;;
73642;SDS011;61938;48.652;9.292;2024-02-23T01:14:46;0.80;;;0.57;;
73642;SDS011;61938;48.652;9.292;2024-02-23T01:17:13;1.65;;;0.30;;
73642;SDS011;61938;48.652;9.292;2024-02-23T01:19:40;1.50;;;0.28;;
73642;SDS011;61938;48.652;9.292;2024-02-23T01:22:07;2.50;;;0.32;;
73642;SDS011;61938;48.652;9.292;2024-02-23T01:24:32;1.08;;;0.50;;
73642;SDS011;61938;48.652;9.292;2024-02-23T01:26:58;1.83;;;0.45;;
73642;SDS011;61938;48.652;9.292;2024-02-23T01:29:25;2.25;;;0.50;;
73642;SDS011;61938;48.652;9.292;2024-02-23T01:31:51;1.85;;;0.30;;
73642;SDS011;61938;48.652;9.292;2024-02-23T01:34:16;1.40;;;0.20;;
73642;SDS011;61938;48.652;9.292;2024-02-23T01:36:42;4.10;;;0.50;;
73642;SDS011;61938;48.652;9.292;2024-02-23T01:39:08;0.90;;;0.50;;
73642;SDS011;61938;48.652;9.292;2024-02-23T01:41:34;2.67;;;0.30;;
73642;SDS011;61938;48.652;9.292;2024-02-23T01:44:00;0.22;;;0.22;;
73642;SDS011;61938;48.652;9.292;2024-02-23T01:46:25;2.13;;;0.30;;
73642;SDS011;61938;48.652;9.292;2024-02-23T01:48:51;3.08;;;0.20;;
73642;SDS011;61938;48.652;9.292;2024-02-23T01:51:17;2.22;;;0.70;;
73642;SDS011;61938;48.652;9.292;2024-02-23T01:53:43;4.75;;;0.77;;
73642;SDS011;61938;48.652;9.292;2024-02-23T01:56:09;3.53;;;0.88;;
73642;SDS011;61938;48.652;9.292;2024-02-23T01:58:35;1.58;;;0.50;;
73642;SDS011;61938;48.652;9.292;2024-02-23T02:01:02;1.60;;;0.32;;
73642;SDS011;61938;48.652;9.292;2024-02-23T02:03:28;4.65;;;0.30;;
73642;SDS011;61938;48.652;9.292;2024-02-23T02:05:54;2.88;;;0.60;;
73642;SDS011;61938;48.652;9.292;2024-02-23T02:08:23;0.40;;;0.20;;
73642;SDS011;61938;48.652;9.292;2024-02-23T02:10:50;1.77;;;0.50;;
73642;SDS011;61938;48.652;9.292;2024-02-23T02:13:15;1.55;;;0.50;;
73642;SDS011;61938;48.652;9.292;2024-02-23T02:15:41;1.30;;;0.15;;
73642;SDS011;61938;48.652;9.292;2024-02-23T02:18:08;0.30;;;0.20;;
73642;SDS011;61938;48.652;9.292;2024-02-23T02:20:34;2.47;;;0.30;;
73642;SDS011;61938;48.652;9.292;2024-02-23T02:23:01;0.30;;;0.13;;
73642;SDS011;61938;48.652;9.292;2024-02-23T02:25:27;0.95;;;0.20;;
73642;SDS011;61938;48.652;9.292;2024-02-23T02:27:52;1.52;;;0.32;;
73642;SDS011;61938;48.652;9.292;2024-02-23T02:30:18;0.63;;;0.20;;
73642;SDS011;61938;48.652;9.292;2024-02-23T02:32:44;1.20;;;0.40;;
73642;SDS011;61938;48.652;9.292;2024-02-23T02:35:10;3.05;;;0.20;;
73642;SDS011;61938;48.652;9.292;2024-02-23T02:37:37;2.97;;;0.20;;
73642;SDS011;61938;48.652;9.292;2024-02-23T02:40:03;0.40;;;0.10;;
73642;SDS011;61938;48.652;9.292;2024-02-23T02:42:29;0.30;;;0.10;;
73642;SDS011;61938;48.652;9.292;2024-02-23T02:44:54;0.63;;;0.20;;
73642;SDS011;61938;48.652;9.292;2024-02-23T02:47:20;2.40;;;0.30;;
73642;SDS011;61938;48.652;9.292;2024-02-23T02:49:45;2.00;;;0.25;;
73642;SDS011;61938;48.652;9.292;2024-02-23T02:52:11;1.67;;;0.30;;
73642;SDS011;61938;48.652;9.292;2024-02-23T02:54:36;0.30;;;0.10;;
73642;SDS011;61938;48.652;9.292;2024-02-23T02:57:02;0.90;;;0.10;;
73642;SDS011;61938;48.652;9.292;2024-02-23T02:59:27;1.52;;;0.30;;
73642;SDS011;61938;48.652;9.292;2024-02-23T03:01:53;0.50;;;0.20;;
73642;SDS011;61938;48.652;9.292;2024-02-23T03:04:18;0.10;;;0.10;;
73642;SDS011;61938;48.652;9.292;2024-02-23T03:06:44;0.90;;;0.30;;
73642;SDS011;61938;48.652;9.292;2024-02-23T03:09:10;0.13;;;0.10;;
73642;SDS011;61938;48.652;9.292;2024-02-23T03:11:50;0.22;;;0.17;;
73642;SDS011;61938;48.652;9.292;2024-02-23T03:14:16;2.25;;;0.30;;
73642;SDS011;61938;48.652;9.292;2024-02-23T03:16:43;0.50;;;0.10;;
73642;SDS011;61938;48.652;9.292;2024-02-23T03:19:09;1.75;;;0.45;;
73642;SDS011;61938;48.652;9.292;2024-02-23T03:21:34;2.92;;;0.40;;
73642;SDS011;61938;48.652;9.292;2024-02-23T03:24:00;2.40;;;0.30;;
73642;SDS011;61938;48.652;9.292;2024-02-23T03:26:25;0.80;;;0.40;;
73642;SDS011;61938;48.652;9.292;2024-02-23T03:28:51;0.25;;;0.10;;
73642;SDS011;61938;48.652;9.292;2024-02-23T03:31:16;0.10;;;0.00;;
73642;SDS011;61938;48.652;9.292;2024-02-23T03:33:42;0.30;;;0.13;;
73642;SDS011;61938;48.652;9.292;2024-02-23T03:36:07;0.98;;;0.08;;
73642;SDS011;61938;48.652;9.292;2024-02-23T03:38:33;1.90;;;0.20;;
73642;SDS011;61938;48.652;9.292;2024-02-23T03:40:59;0.25;;;0.20;;
73642;SDS011;61938;48.652;9.292;2024-02-23T03:43:25;0.50;;;0.08;;
73642;SDS011;61938;48.652;9.292;2024-02-23T03:45:51;0.40;;;0.22;;
73642;SDS011;61938;48.652;9.292;2024-02-23T03:48:16;1.77;;;0.28;;
73642;SDS011;61938;48.652;9.292;2024-02-23T03:50:42;1.30;;;0.22;;
73642;SDS011;61938;48.652;9.292;2024-02-23T03:53:07;4.78;;;0.50;;
73642;SDS011;61938;48.652;9.292;2024-02-23T03:55:33;0.40;;;0.20;;
73642;SDS011;61938;48.652;9.292;2024-02-23T03:57:58;2.35;;;0.60;;
73642;SDS011;61938;48.652;9.292;2024-02-23T04:00:24;2.92;;;1.02;;
73642;SDS011;61938;48.652;9.292;2024-02-23T04:02:50;5.05;;;1.95;;
73642;SDS011;61938;48.652;9.292;2024-02-23T04:05:15;8.85;;;2.70;;
73642;SDS011;61938;48.652;9.292;2024-02-23T04:07:41;7.05;;;2.17;;
73642;SDS011;61938;48.652;9.292;2024-02-23T04:10:06;8.63;;;2.90;;
73642;SDS011;61938;48.652;9.292;2024-02-23T04:12:32;14.45;;;3.80;;
73642;SDS011;61938;48.652;9.292;2024-02-23T04:14:58;8.35;;;2.28;;
73642;SDS011;61938;48.652;9.292;2024-02-23T04:17:23;1.73;;;0.77;;
73642;SDS011;61938;48.652;9.292;2024-02-23T04:19:49;1.25;;;0.68;;
73642;SDS011;61938;48.652;9.292;2024-02-23T04:22:16;3.55;;;0.45;;
73642;SDS011;61938;48.652;9.292;2024-02-23T04:24:41;0.90;;;0.50;;
73642;SDS011;61938;48.652;9.292;2024-02-23T04:27:07;0.40;;;0.30;;
73642;SDS011;61938;48.652;9.292;2024-02-23T04:29:33;2.55;;;0.30;;
73642;SDS011;61938;48.652;9.292;2024-02-23T04:31:59;0.40;;;0.30;;
73642;SDS011;61938;48.652;9.292;2024-02-23T04:34:26;3.13;;;0.40;;
73642;SDS011;61938;48.652;9.292;2024-02-23T04:36:52;0.90;;;0.40;;
73642;SDS011;61938;48.652;9.292;2024-02-23T04:39:17;3.63;;;0.70;;
73642;SDS011;61938;48.652;9.292;2024-02-23T04:41:55;2.88;;;0.50;;
73642;SDS011;61938;48.652;9.292;2024-02-23T04:44:20;2.88;;;0.50;;
73642;SDS011;61938;48.652;9.292;2024-02-23T04:46:46;1.55;;;0.80;;
73642;SDS011;61938;48.652;9.292;2024-02-23T04:49:11;2.88;;;0.70;;
73642;SDS011;61938;48.652;9.292;2024-02-23T04:51:37;1.10;;;0.52;;
73642;SDS011;61938;48.652;9.292;2024-02-23T04:54:03;2.17;;;0.38;;
73642;SDS011;61938;48.652;9.292;2024-02-23T04:56:29;1.60;;;0.50;;
73642;SDS011;61938;48.652;9.292;2024-02-23T04:58:54;1.30;;;0.50;;
73642;SDS011;61938;48.652;9.292;2024-02-23T05:01:20;0.22;;;0.13;;
73642;SDS011;61938;48.652;9.292;2024-02-23T05:03:45;1.00;;;0.40;;
73642;SDS011;61938;48.652;9.292;2024-02-23T05:06:11;0.73;;;0.40;;
73642;SDS011;61938;48.652;9.292;2024-02-23T05:08:37;0.73;;;0.30;;
73642;SDS011;61938;48.652;9.292;2024-02-23T05:11:03;0.30;;;0.30;;
73642;SDS011;61938;48.652;9.292;2024-02-23T05:13:29;0.50;;;0.25;;
73642;SDS011;61938;48.652;9.292;2024-02-23T05:15:55;0.20;;;0.20;;
73642;SDS011;61938;48.652;9.292;2024-02-23T05:18:22;0.70;;;0.30;;
73642;SDS011;61938;48.652;9.292;2024-02-23T05:20:47;1.17;;;0.40;;
73642;SDS011;61938;48.652;9.292;2024-02-23T05:23:13;0.40;;;0.30;;
73642;SDS011;61938;48.652;9.292;2024-02-23T05:25:40;1.80;;;0.50;;
73642;SDS011;61938;48.652;9.292;2024-02-23T05:28:06;0.77;;;0.70;;
73642;SDS011;61938;48.652;9.292;2024-02-23T05:30:32;1.27;;;0.70;;
73642;SDS011;61938;48.652;9.292;2024-02-23T05:32:57;1.58;;;0.95;;
73642;SDS011;61938;48.652;9.292;2024-02-23T05:35:24;2.38;;;1.00;;
73642;SDS011;61938;48.652;9.292;2024-02-23T05:37:50;3.60;;;0.98;;
73642;SDS011;61938;48.652;9.292;2024-02-23T05:40:15;3.38;;;1.00;;
73642;SDS011;61938;48.652;9.292;2024-02-23T05:42:41;4.38;;;0.93;;
73642;SDS011;61938;48.652;9.292;2024-02-23T05:45:07;6.18;;;3.13;;
73642;SDS011;61938;48.652;9.292;2024-02-23T05:47:36;10.13;;;5.15;;
73642;SDS011;61938;48.652;9.292;2024-02-23T05:50:03;6.97;;;3.90;;
73642;SDS011;61938;48.652;9.292;2024-02-23T05:52:30;10.57;;;3.78;;
73642;SDS011;61938;48.652;9.292;2024-02-23T05:54:56;6.05;;;3.10;;
73642;SDS011;61938;48.652;9.292;2024-02-23T05:57:22;5.55;;;3.10;;
73642;SDS011;61938;48.652;9.292;2024-02-23T05:59:47;6.18;;;2.40;;
73642;SDS011;61938;48.652;9.292;2024-02-23T06:02:13;2.95;;;1.75;;
73642;SDS011;61938;48.652;9.292;2024-02-23T06:04:40;3.17;;;1.77;;
73642;SDS011;61938;48.652;9.292;2024-02-23T06:07:05;2.50;;;1.30;;
73642;SDS011;61938;48.652;9.292;2024-02-23T06:09:31;2.10;;;1.05;;
73642;SDS011;61938;48.652;9.292;2024-02-23T06:11:56;3.63;;;1.23;;
73642;SDS011;61938;48.652;9.292;2024-02-23T06:14:22;1.42;;;0.70;;
73642;SDS011;61938;48.652;9.292;2024-02-23T06:16:48;1.90;;;0.68;;
73642;SDS011;61938;48.652;9.292;2024-02-23T06:19:14;2.45;;;1.27;;
73642;SDS011;61938;48.652;9.292;2024-02-23T06:21:40;4.05;;;1.42;;
73642;SDS011;61938;48.652;9.292;2024-02-23T06:24:06;1.88;;;1.00;;
73642;SDS011;61938;48.652;9.292;2024-02-23T06:26:33;8.07;;;1.30;;
73642;SDS011;61938;48.652;9.292;2024-02-23T06:28:59;3.38;;;0.82;;
73642;SDS011;61938;48.652;9.292;2024-02-23T06:31:25;2.80;;;1.20;;
73642;SDS011;61938;48.652;9.292;2024-02-23T06:33:50;2.30;;;1.10;;
73642;SDS011;61938;48.652;9.292;2024-02-23T06:36:17;5.20;;;1.02;;
73642;SDS011;61938;48.652;9.292;2024-02-23T06:38:43;2.90;;;1.27;;
73642;SDS011;61938;48.652;9.292;2024-02-23T06:41:09;2.05;;;1.10;;
73642;SDS011;61938;48.652;9.292;2024-02-23T06:43:36;5.45;;;1.25;;
73642;SDS011;61938;48.652;9.292;2024-02-23T06:46:06;4.20;;;1.27;;
73642;SDS011;61938;48.652;9.292;2024-02-23T06:48:33;3.05;;;1.25;;
73642;SDS011;61938;48.652;9.292;2024-02-23T06:50:59;3.70;;;1.58;;
73642;SDS011;61938;48.652;9.292;2024-02-23T06:53:24;5.70;;;1.40;;
73642;SDS011;61938;48.652;9.292;2024-02-23T06:55:50;5.72;;;1.30;;
73642;SDS011;61938;48.652;9.292;2024-02-23T06:58:15;3.85;;;1.00;;
73642;SDS011;61938;48.652;9.292;2024-02-23T07:00:41;2.65;;;1.10;;
73642;SDS011;61938;48.652;9.292;2024-02-23T07:03:07;4.22;;;0.85;;
73642;SDS011;61938;48.652;9.292;2024-02-23T07:05:33;1.80;;;0.90;;
73642;SDS011;61938;48.652;9.292;2024-02-23T07:08:00;1.20;;;0.63;;
73642;SDS011;61938;48.652;9.292;2024-02-23T07:10:26;6.05;;;1.00;;
73642;SDS011;61938;48.652;9.292;2024-02-23T07:12:51;3.22;;;1.17;;
73642;SDS011;61938;48.652;9.292;2024-02-23T07:15:21;3.55;;;1.13;;
73642;SDS011;61938;48.652;9.292;2024-02-23T07:17:47;7.70;;;1.38;;
73642;SDS011;61938;48.652;9.292;2024-02-23T07:20:13;3.80;;;1.25;;
73642;SDS011;61938;48.652;9.292;2024-02-23T07:22:38;2.67;;;1.10;;
73642;SDS011;61938;48.652;9.292;2024-02-23T07:25:07;4.40;;;1.20;;
73642;SDS011;61938;48.652;9.292;2024-02-23T07:27:33;4.70;;;1.50;;
73642;SDS011;61938;48.652;9.292;2024-02-23T07:29:59;8.57;;;1.50;;
73642;SDS011;61938;48.652;9.292;2024-02-23T07:32:24;4.72;;;1.58;;
73642;SDS011;61938;48.652;9.292;2024-02-23T07:34:50;2.35;;;0.98;;
73642;SDS011;61938;48.652;9.292;2024-02-23T07:37:15;7.25;;;1.25;;
73642;SDS011;61938;48.652;9.292;2024-02-23T07:39:41;2.67;;;1.10;;
73642;SDS011;61938;48.652;9.292;2024-02-23T07:42:07;5.85;;;1.50;;
73642;SDS011;61938;48.652;9.292;2024-02-23T07:44:35;10.05;;;0.90;;
73642;SDS011;61938;48.652;9.292;2024-02-23T07:47:00;1.33;;;0.73;;
73642;SDS011;61938;48.652;9.292;2024-02-23T07:49:26;5.30;;;0.75;;
73642;SDS011;61938;48.652;9.292;2024-02-23T07:51:53;2.92;;;1.00;;
73642;SDS011;61938;48.652;9.292;2024-02-23T07:54:19;3.70;;;1.30;;
73642;SDS011;61938;48.652;9.292;2024-02-23T07:56:45;3.60;;;0.90;;
73642;SDS011;61938;48.652;9.292;2024-02-23T07:59:10;3.97;;;1.42;;
73642;SDS011;61938;48.652;9.292;2024-02-23T08:01:36;5.93;;;1.27;;
73642;SDS011;61938;48.652;9.292;2024-02-23T08:04:01;4.18;;;1.52;;
73642;SDS011;61938;48.652;9.292;2024-02-23T08:06:28;4.25;;;1.20;;
73642;SDS011;61938;48.652;9.292;2024-02-23T08:08:53;6.80;;;1.10;;
73642;SDS011;61938;48.652;9.292;2024-02-23T08:11:20;2.75;;;1.13;;
73642;SDS011;61938;48.652;9.292;2024-02-23T08:13:45;3.42;;;1.20;;
73642;SDS011;61938;48.652;9.292;2024-02-23T08:16:11;3.05;;;1.13;;
73642;SDS011;61938;48.652;9.292;2024-02-23T08:18:36;3.72;;;1.17;;
73642;SDS011;61938;48.652;9.292;2024-02-23T08:21:02;2.85;;;1.17;;
73642;SDS011;61938;48.652;9.292;2024-02-23T08:23:28;4.68;;;1.20;;
73642;SDS011;61938;48.652;9.292;2024-02-23T08:25:55;12.75;;;3.83;;
73642;SDS011;61938;48.652;9.292;2024-02-23T08:28:25;6.25;;;1.95;;
73642;SDS011;61938;48.652;9.292;2024-02-23T08:30:50;2.30;;;1.13;;
73642;SDS011;61938;48.652;9.292;2024-02-23T08:33:16;5.70;;;1.33;;
73642;SDS011;61938;48.652;9.292;2024-02-23T08:35:41;1.92;;;1.00;;
73642;SDS011;61938;48.652;9.292;2024-02-23T08:38:07;8.82;;;1.38;;
73642;SDS011;61938;48.652;9.292;2024-02-23T08:40:34;2.78;;;1.08;;
73642;SDS011;61938;48.652;9.292;2024-02-23T08:42:59;6.88;;;1.30;;
73642;SDS011;61938;48.652;9.292;2024-02-23T08:45:25;5.22;;;1.30;;
73642;SDS011;61938;48.652;9.292;2024-02-23T08:47:51;4.07;;;1.23;;
73642;SDS011;61938;48.652;9.292;2024-02-23T08:50:16;3.38;;;1.15;;
73642;SDS011;61938;48.652;9.292;2024-02-23T08:52:42;5.53;;;1.58;;
73642;SDS011;61938;48.652;9.292;2024-02-23T08:55:07;5.13;;;1.13;;
73642;SDS011;61938;48.652;9.292;2024-02-23T08:57:33;7.57;;;1.40;;
73642;SDS011;61938;48.652;9.292;2024-02-23T08:59:59;6.50;;;1.27;;
73642;SDS011;61938;48.652;9.292;2024-02-23T09:02:24;9.68;;;1.35;;
73642;SDS011;61938;48.652;9.292;2024-02-23T09:04:50;5.47;;;1.50;;
73642;SDS011;61938;48.652;9.292;2024-02-23T09:07:16;5.00;;;1.55;;
73642;SDS011;61938;48.652;9.292;2024-02-23T09:09:44;5.63;;;1.08;;
73642;SDS011;61938;48.652;9.292;2024-02-23T09:12:10;6.45;;;1.30;;
73642;SDS011;61938;48.652;9.292;2024-02-23T09:14:36;4.57;;;1.33;;
73642;SDS011;61938;48.652;9.292;2024-02-23T09:17:03;4.38;;;1.35;;
73642;SDS011;61938;48.652;9.292;2024-02-23T09:19:29;4.15;;;1.27;;
73642;SDS011;61938;48.652;9.292;2024-02-23T09:21:55;3.13;;;1.23;;
73642;SDS011;61938;48.652;9.292;2024-02-23T09:24:20;5.32;;;2.20;;
73642;SDS011;61938;48.652;9.292;2024-02-23T09:26:46;8.50;;;1.52;;
73642;SDS011;61938;48.652;9.292;2024-02-23T09:29:12;8.68;;;1.27;;
73642;SDS011;61938;48.652;9.292;2024-02-23T09:31:38;4.70;;;1.45;;
73642;SDS011;61938;48.652;9.292;2024-02-23T09:34:03;6.93;;;1.40;;
73642;SDS011;61938;48.652;9.292;2024-02-23T09:36:29;5.63;;;1.60;;
73642;SDS011;61938;48.652;9.292;2024-02-23T09:38:55;4.43;;;1.48;;
73642;SDS011;61938;48.652;9.292;2024-02-23T09:41:21;9.93;;;1.45;;
73642;SDS011;61938;48.652;9.292;2024-02-23T09:43:48;4.15;;;1.15;;
73642;SDS011;61938;48.652;9.292;2024-02-23T09:46:14;3.47;;;1.25;;
73642;SDS011;61938;48.652;9.292;2024-02-23T09:48:42;4.82;;;1.15;;
73642;SDS011;61938;48.652;9.292;2024-02-23T09:51:13;3.30;;;1.08;;
73642;SDS011;61938;48.652;9.292;2024-02-23T09:53:40;5.90;;;1.20;;
73642;SDS011;61938;48.652;9.292;2024-02-23T09:56:07;8.85;;;1.15;;
73642;SDS011;61938;48.652;9.292;2024-02-23T09:58:34;9.43;;;1.20;;
73642;SDS011;61938;48.652;9.292;2024-02-23T10:01:02;4.90;;;1.00;;
73642;SDS011;61938;48.652;9.292;2024-02-23T10:03:28;6.25;;;1.15;;
73642;SDS011;61938;48.652;9.292;2024-02-23T10:05:58;2.63;;;0.90;;
73642;SDS011;61938;48.652;9.292;2024-02-23T10:08:27;2.83;;;0.63;;
73642;SDS011;61938;48.652;9.292;2024-02-23T10:10:54;5.95;;;0.82;;
73642;SDS011;61938;48.652;9.292;2024-02-23T10:13:20;3.70;;;1.02;;
73642;SDS011;61938;48.652;9.292;2024-02-23T10:15:47;6.95;;;0.93;;
73642;SDS011;61938;48.652;9.292;2024-02-23T10:18:13;8.90;;;1.23;;
73642;SDS011;61938;48.652;9.292;2024-02-23T10:20:39;4.65;;;1.20;;
73642;SDS011;61938;48.652;9.292;2024-02-23T10:23:05;4.93;;;0.80;;
73642;SDS011;61938;48.652;9.292;2024-02-23T10:25:38;3.35;;;0.80;;
73642;SDS011;61938;48.652;9.292;2024-02-23T10:28:04;7.30;;;1.15;;
73642;SDS011;61938;48.652;9.292;2024-02-23T10:30:30;6.47;;;1.20;;
73642;SDS011;61938;48.652;9.292;2024-02-23T10:32:56;7.57;;;1.27;;
73642;SDS011;61938;48.652;9.292;2024-02-23T10:35:23;2.33;;;1.00;;
73642;SDS011;61938;48.652;9.292;2024-02-23T10:37:50;6.60;;;1.30;;
73642;SDS011;61938;48.652;9.292;2024-02-23T10:40:17;4.70;;;1.00;;
73642;SDS011;61938;48.652;9.292;2024-02-23T10:42:45;2.70;;;1.10;;
73642;SDS011;61938;48.652;9.292;2024-02-23T10:47:42;5.47;;;1.30;;
73642;SDS011;61938;48.652;9.292;2024-02-23T10:50:08;3.33;;;0.70;;
73642;SDS011;61938;48.652;9.292;2024-02-23T10:52:35;4.28;;;0.80;;
73642;SDS011;61938;48.652;9.292;2024-02-23T10:55:01;3.08;;;1.00;;
73642;SDS011;61938;48.652;9.292;2024-02-23T10:57:30;5.55;;;1.83;;
73642;SDS011;61938;48.652;9.292;2024-02-23T10:59:59;7.25;;;1.45;;
73642;SDS011;61938;48.652;9.292;2024-02-23T11:02:25;5.70;;;1.25;;
73642;SDS011;61938;48.652;9.292;2024-02-23T11:04:54;6.45;;;0.90;;
73642;SDS011;61938;48.652;9.292;2024-02-23T11:07:22;3.90;;;0.90;;
73642;SDS011;61938;48.652;9.292;2024-02-23T11:10:08;5.28;;;0.70;;
73642;SDS011;61938;48.652;9.292;2024-02-23T11:12:36;6.18;;;1.23;;
73642;SDS011;61938;48.652;9.292;2024-02-23T11:15:02;4.03;;;1.05;;
73642;SDS011;61938;48.652;9.292;2024-02-23T11:17:29;6.55;;;0.90;;
73642;SDS011;61938;48.652;9.292;2024-02-23T11:19:56;5.93;;;1.13;;
73642;SDS011;61938;48.652;9.292;2024-02-23T11:22:25;8.23;;;1.10;;
73642;SDS011;61938;48.652;9.292;2024-02-23T11:25:04;3.63;;;0.70;;
73642;SDS011;61938;48.652;9.292;2024-02-23T11:27:31;6.40;;;1.17;;
73642;SDS011;61938;48.652;9.292;2024-02-23T11:30:05;3.53;;;0.82;;
73642;SDS011;61938;48.652;9.292;2024-02-23T11:32:45;3.53;;;0.82;;
73642;SDS011;61938;48.652;9.292;2024-02-23T11:35:13;7.32;;;1.10;;
73642;SDS011;61938;48.652;9.292;2024-02-23T11:37:47;5.45;;;0.93;;
73642;SDS011;61938;48.652;9.292;2024-02-23T11:40:27;6.75;;;1.13;;
73642;SDS011;61938;48.652;9.292;2024-02-23T11:42:56;6.57;;;1.38;;
73642;SDS011;61938;48.652;9.292;2024-02-23T11:45:23;5.15;;;1.17;;
73642;SDS011;61938;48.652;9.292;2024-02-23T11:47:49;12.88;;;1.00;;
73642;SDS011;61938;48.652;9.292;2024-02-23T11:50:15;5.47;;;1.30;;
73642;SDS011;61938;48.652;9.292;2024-02-23T11:52:44;5.18;;;1.08;;
73642;SDS011;61938;48.652;9.292;2024-02-23T11:55:10;4.65;;;0.73;;
73642;SDS011;61938;48.652;9.292;2024-02-23T11:57:36;6.63;;;0.95;;
73642;SDS011;61938;48.652;9.292;2024-02-23T12:00:03;4.68;;;0.93;;
73642;SDS011;61938;48.652;9.292;2024-02-23T12:02:31;8.68;;;1.50;;
73642;SDS011;61938;48.652;9.292;2024-02-23T12:04:57;5.07;;;1.15;;
73642;SDS011;61938;48.652;9.292;2024-02-23T12:07:22;6.80;;;0.70;;
73642;SDS011;61938;48.652;9.292;2024-02-23T12:09:49;5.70;;;1.00;;
73642;SDS011;61938;48.652;9.292;2024-02-23T12:12:15;4.22;;;1.35;;
73642;SDS011;61938;48.652;9.292;2024-02-23T12:14:40;5.78;;;1.05;;
73642;SDS011;61938;48.652;9.292;2024-02-23T12:17:07;5.88;;;1.88;;
73642;SDS011;61938;48.652;9.292;2024-02-23T12:19:37;3.72;;;0.80;;
73642;SDS011;61938;48.652;9.292;2024-02-23T12:22:06;9.07;;;1.00;;
73642;SDS011;61938;48.652;9.292;2024-02-23T12:24:32;5.90;;;1.05;;
73642;SDS011;61938;48.652;9.292;2024-02-23T12:26:57;9.15;;;1.25;;
73642;SDS011;61938;48.652;9.292;2024-02-23T12:29:23;7.05;;;1.00;;
73642;SDS011;61938;48.652;9.292;2024-02-23T12:31:49;3.38;;;0.82;;
73642;SDS011;61938;48.652;9.292;2024-02-23T12:34:14;8.57;;;1.10;;
73642;SDS011;61938;48.652;9.292;2024-02-23T12:36:40;3.28;;;0.82;;
73642;SDS011;61938;48.652;9.292;2024-02-23T12:39:06;5.03;;;1.42;;
73642;SDS011;61938;48.652;9.292;2024-02-23T12:41:32;6.15;;;1.45;;
73642;SDS011;61938;48.652;9.292;2024-02-23T12:43:58;3.17;;;0.77;;
73642;SDS011;61938;48.652;9.292;2024-02-23T12:46:23;7.90;;;0.80;;
73642;SDS011;61938;48.652;9.292;2024-02-23T12:48:49;3.25;;;0.90;;
73642;SDS011;61938;48.652;9.292;2024-02-23T12:51:15;5.20;;;0.82;;
73642;SDS011;61938;48.652;9.292;2024-02-23T12:53:41;4.40;;;1.25;;
73642;SDS011;61938;48.652;9.292;2024-02-23T12:56:08;9.38;;;1.02;;
73642;SDS011;61938;48.652;9.292;2024-02-23T12:58:36;7.60;;;1.52;;
73642;SDS011;61938;48.652;9.292;2024-02-23T13:01:02;4.45;;;0.98;;
73642;SDS011;61938;48.652;9.292;2024-02-23T13:03:28;5.38;;;1.33;;
73642;SDS011;61938;48.652;9.292;2024-02-23T13:05:54;6.50;;;0.95;;
73642;SDS011;61938;48.652;9.292;2024-02-23T13:08:23;8.70;;;1.90;;
73642;SDS011;61938;48.652;9.292;2024-02-23T13:10:50;6.57;;;1.65;;
73642;SDS011;61938;48.652;9.292;2024-02-23T13:13:16;4.50;;;1.27;;
73642;SDS011;61938;48.652;9.292;2024-02-23T13:15:42;3.38;;;1.00;;
73642;SDS011;61938;48.652;9.292;2024-02-23T13:18:11;5.45;;;1.27;;
73642;SDS011;61938;48.652;9.292;2024-02-23T13:20:37;9.25;;;1.35;;
73642;SDS011;61938;48.652;9.292;2024-02-23T13:23:04;11.23;;;1.65;;
73642;SDS011;61938;48.652;9.292;2024-02-23T13:25:32;12.85;;;1.77;;
73642;SDS011;61938;48.652;9.292;2024-02-23T13:27:57;7.40;;;1.73;;
73642;SDS011;61938;48.652;9.292;2024-02-23T13:30:23;8.45;;;1.15;;
73642;SDS011;61938;48.652;9.292;2024-02-23T13:32:49;6.05;;;1.20;;
73642;SDS011;61938;48.652;9.292;2024-02-23T13:35:14;6.45;;;1.55;;
73642;SDS011;61938;48.652;9.292;2024-02-23T13:37:41;12.95;;;1.20;;
73642;SDS011;61938;48.652;9.292;2024-02-23T13:40:08;5.13;;;1.48;;
73642;SDS011;61938;48.652;9.292;2024-02-23T13:42:34;4.80;;;0.93;;
73642;SDS011;61938;48.652;9.292;2024-02-23T13:45:01;4.28;;;1.02;;
73642;SDS011;61938;48.652;9.292;2024-02-23T13:47:26;5.53;;;1.15;;
73642;SDS011;61938;48.652;9.292;2024-02-23T13:49:51;5.95;;;1.17;;
73642;SDS011;61938;48.652;9.292;2024-02-23T13:52:17;6.55;;;1.05;;
73642;SDS011;61938;48.652;9.292;2024-02-23T13:54:42;4.78;;;1.20;;
73642;SDS011;61938;48.652;9.292;2024-02-23T13:57:08;8.73;;;1.48;;
73642;SDS011;61938;48.652;9.292;2024-02-23T13:59:33;4.35;;;0.90;;
73642;SDS011;61938;48.652;9.292;2024-02-23T14:01:59;5.03;;;1.27;;
73642;SDS011;61938;48.652;9.292;2024-02-23T14:04:25;5.07;;;1.00;;
73642;SDS011;61938;48.652;9.292;2024-02-23T14:06:51;5.82;;;1.50;;
73642;SDS011;61938;48.652;9.292;2024-02-23T14:09:16;6.43;;;1.10;;
73642;SDS011;61938;48.652;9.292;2024-02-23T14:11:42;5.88;;;1.00;;
73642;SDS011;61938;48.652;9.292;2024-02-23T14:14:07;8.52;;;1.30;;
73642;SDS011;61938;48.652;9.292;2024-02-23T14:16:33;3.55;;;1.08;;
73642;SDS011;61938;48.652;9.292;2024-02-23T14:18:59;5.80;;;1.63;;
73642;SDS011;61938;48.652;9.292;2024-02-23T14:21:25;10.68;;;1.70;;
73642;SDS011;61938;48.652;9.292;2024-02-23T14:23:51;5.78;;;1.10;;
73642;SDS011;61938;48.652;9.292;2024-02-23T14:26:17;4.88;;;1.20;;
73642;SDS011;61938;48.652;9.292;2024-02-23T14:28:42;6.60;;;1.13;;
73642;SDS011;61938;48.652;9.292;2024-02-23T14:31:08;6.63;;;1.08;;
73642;SDS011;61938;48.652;9.292;2024-02-23T14:33:33;5.32;;;1.20;;
73642;SDS011;61938;48.652;9.292;2024-02-23T14:35:59;7.18;;;1.25;;
73642;SDS011;61938;48.652;9.292;2024-02-23T14:38:24;4.50;;;0.90;;
73642;SDS011;61938;48.652;9.292;2024-02-23T14:40:50;4.72;;;1.17;;
73642;SDS011;61938;48.652;9.292;2024-02-23T14:43:16;5.03;;;0.98;;
73642;SDS011;61938;48.652;9.292;2024-02-23T14:45:41;6.32;;;1.30;;